Terminal Aerodrome Forecast
Issued by NWS

Home | Current Version | Previous Version | Text Only | Print | Product List | Glossary On
Versions: 1 2 3 4 5 6 7 8 9 10 11 12 13 14 15 16 17 18 19
302
FTAK31 PAJN 192340
TAFAYA
TAF
PAYA 192340Z 2000/2024 13012G20KT P6SM VCSH BKN015 OVC030
      TEMPO 2000/2003 3SM -SHRA BR OVC015
     FM200300 12012KT 5SM -SHRA BR SCT015 OVC025
     FM201200 14007KT P6SM -SHRA BKN030 OVC080
      AMD LTD TO CLD VIS AND WIND=

USA.gov is the U.S. government's official web portal to all federal, state and local government web resources and services.